Time;durP1;ratioP1;P1;durP2;ratioP2;P2;SDS_P1;SDS_P2;PMS_P1;PMS_P2;Temp;Humidity;BMP_temperature;BMP_pressure;BME280_temperature;BME280_humidity;BME280_pressure;Samples;Min_cycle;Max_cycle;Signal;HPM_P1;HPM_P2
2022/07/01 00:01:42;;;;;;;8.60;7.83;;;16.60;99.90;;;;;;5017535;28;20457;-77
2022/07/01 00:04:09;;;;;;;8.70;7.90;;;16.60;99.90;;;;;;5023405;28;20868;-77
2022/07/01 00:06:35;;;;;;;8.93;7.90;;;16.60;99.90;;;;;;5016466;28;20485;-77
2022/07/01 00:09:02;;;;;;;8.73;7.33;;;16.50;99.90;;;;;;5021266;28;20457;-78
2022/07/01 00:11:29;;;;;;;8.13;7.43;;;16.50;99.90;;;;;;5016368;28;21025;-76
2022/07/01 00:13:57;;;;;;;8.30;7.60;;;16.50;99.90;;;;;;5019123;28;20458;-77
2022/07/01 00:16:23;;;;;;;8.37;7.30;;;16.50;99.90;;;;;;5016462;28;20489;-78
2022/07/01 00:18:50;;;;;;;7.83;7.07;;;16.50;99.90;;;;;;5015928;28;20564;-78
2022/07/01 00:21:16;;;;;;;7.53;6.83;;;16.50;99.90;;;;;;5015211;28;20457;-77
2022/07/01 00:23:43;;;;;;;8.00;7.30;;;16.50;99.90;;;;;;5016854;28;21223;-78
2022/07/01 00:26:10;;;;;;;7.87;7.07;;;16.50;99.90;;;;;;5020772;28;20481;-77
2022/07/01 00:28:37;;;;;;;7.87;7.23;;;16.60;99.90;;;;;;5016113;28;21014;-77
2022/07/01 00:31:05;;;;;;;7.63;6.93;;;16.60;99.90;;;;;;5013851;28;20429;-77
2022/07/01 00:33:31;;;;;;;7.40;6.67;;;16.60;99.90;;;;;;5018714;28;20454;-77
2022/07/01 00:35:59;;;;;;;8.73;7.27;;;16.50;99.90;;;;;;5018474;28;20478;-77
2022/07/01 00:38:26;;;;;;;6.97;6.47;;;16.50;99.90;;;;;;5007674;28;20446;-77
2022/07/01 00:40:54;;;;;;;7.30;6.70;;;16.50;99.90;;;;;;5009360;28;20458;-77
2022/07/01 00:43:22;;;;;;;7.77;7.07;;;16.50;99.90;;;;;;5012160;28;20978;-78
2022/07/01 00:45:50;;;;;;;10.03;8.83;;;16.50;99.90;;;;;;5014192;28;20481;-77
2022/07/01 00:48:20;;;;;;;9.67;8.70;;;16.60;99.90;;;;;;5024410;28;21959;-78
2022/07/01 00:50:47;;;;;;;9.00;8.20;;;16.50;99.90;;;;;;5017167;28;20481;-77
2022/07/01 00:53:15;;;;;;;11.57;8.90;;;16.50;99.90;;;;;;5010909;28;20518;-78
2022/07/01 00:55:42;;;;;;;9.43;8.50;;;16.50;99.90;;;;;;5014212;28;20473;-77
2022/07/01 00:58:09;;;;;;;9.30;8.50;;;16.40;99.90;;;;;;5011564;28;21017;-77
2022/07/01 01:00:38;;;;;;;9.50;8.50;;;16.30;99.90;;;;;;5015680;28;20453;-77
2022/07/01 01:03:06;;;;;;;10.10;9.10;;;16.30;99.90;;;;;;5015644;28;20461;-77
2022/07/01 01:05:34;;;;;;;10.20;9.27;;;16.20;99.90;;;;;;5011777;28;20533;-77
2022/07/01 01:08:01;;;;;;;10.57;9.57;;;16.20;99.90;;;;;;5017825;28;20492;-77
2022/07/01 01:10:28;;;;;;;10.57;9.53;;;16.30;99.90;;;;;;5018770;28;20449;-78
2022/07/01 01:12:56;;;;;;;10.23;9.20;;;16.20;99.90;;;;;;5020096;28;20461;-77
2022/07/01 01:15:23;;;;;;;13.40;10.03;;;16.20;99.90;;;;;;5021361;28;20469;-77
2022/07/01 01:17:51;;;;;;;10.70;9.10;;;16.20;99.90;;;;;;5014950;28;20958;-77
2022/07/01 01:20:19;;;;;;;11.83;10.30;;;16.10;99.90;;;;;;5019851;28;20425;-77
2022/07/01 01:22:48;;;;;;;10.57;9.40;;;16.20;99.90;;;;;;5019081;28;20453;-77
2022/07/01 01:25:15;;;;;;;10.73;9.63;;;16.20;99.90;;;;;;5025634;28;20513;-78
2022/07/01 01:27:41;;;;;;;10.93;9.83;;;16.20;99.90;;;;;;5021107;28;20508;-77
2022/07/01 01:30:11;;;;;;;10.23;9.23;;;16.20;99.90;;;;;;5016751;28;20462;-77
2022/07/01 01:32:38;;;;;;;11.57;10.40;;;16.30;99.90;;;;;;5019234;28;20449;-78
2022/07/01 01:35:07;;;;;;;10.67;9.57;;;16.30;99.90;;;;;;5020032;28;20547;-77
2022/07/01 01:37:34;;;;;;;11.67;10.43;;;16.30;99.90;;;;;;5023729;28;20461;-77
2022/07/01 01:40:02;;;;;;;10.63;9.63;;;16.30;99.90;;;;;;5019402;28;20458;-77
2022/07/01 01:42:30;;;;;;;7.53;6.83;;;16.30;99.90;;;;;;5015041;28;20445;-77
2022/07/01 01:44:57;;;;;;;9.90;8.73;;;16.30;99.90;;;;;;5015271;28;20527;-76
2022/07/01 01:47:24;;;;;;;9.47;7.93;;;16.10;99.90;;;;;;5020619;28;20490;-77
2022/07/01 01:49:50;;;;;;;8.13;7.33;;;15.90;99.90;;;;;;5020504;28;20870;-76
2022/07/01 01:52:17;;;;;;;7.77;7.07;;;15.80;99.90;;;;;;5018452;28;20492;-76
2022/07/01 01:54:44;;;;;;;7.50;6.80;;;15.80;99.90;;;;;;5017606;28;20478;-77
2022/07/01 01:57:12;;;;;;;8.53;6.87;;;15.70;99.90;;;;;;5017206;28;20452;-76
2022/07/01 01:59:39;;;;;;;8.30;7.50;;;15.70;99.90;;;;;;5013131;28;20465;-76
2022/07/01 02:02:05;;;;;;;8.13;7.27;;;15.70;99.90;;;;;;5022377;28;20461;-76
2022/07/01 02:04:33;;;;;;;6.90;6.30;;;15.70;99.90;;;;;;5027042;28;20581;-76
2022/07/01 02:06:59;;;;;;;7.63;6.87;;;15.60;99.90;;;;;;5022961;28;20474;-76
2022/07/01 02:09:26;;;;;;;8.43;6.27;;;15.60;99.90;;;;;;5019020;28;20508;-76
2022/07/01 02:11:53;;;;;;;8.13;5.80;;;15.60;99.90;;;;;;5022965;28;20869;-76
2022/07/01 02:14:21;;;;;;;8.00;5.80;;;15.60;99.90;;;;;;5024093;28;20474;-76
2022/07/01 02:16:48;;;;;;;5.90;5.30;;;15.60;99.90;;;;;;5017240;28;20958;-76
2022/07/01 02:19:15;;;;;;;9.70;5.97;;;15.60;99.90;;;;;;5024955;28;20466;-76
2022/07/01 02:21:41;;;;;;;6.67;6.07;;;15.60;99.90;;;;;;5017733;28;20450;-76
2022/07/01 02:24:09;;;;;;;5.70;5.10;;;15.50;99.90;;;;;;5016840;28;21001;-76
2022/07/01 02:26:36;;;;;;;7.40;6.60;;;15.50;99.90;;;;;;5016012;28;20466;-76
2022/07/01 02:29:03;;;;;;;6.13;5.57;;;15.50;99.90;;;;;;5015559;28;20456;-76
2022/07/01 02:31:31;;;;;;;5.20;4.70;;;15.40;99.90;;;;;;5017383;28;20458;-76
2022/07/01 02:33:57;;;;;;;5.87;5.20;;;15.30;99.90;;;;;;5014804;28;20507;-75
2022/07/01 02:36:24;;;;;;;5.20;4.80;;;15.30;99.90;;;;;;5022726;28;20482;-76
2022/07/01 02:38:51;;;;;;;5.33;4.87;;;15.30;99.90;;;;;;5023926;28;20497;-76
2022/07/01 02:41:17;;;;;;;4.87;4.33;;;15.30;99.90;;;;;;5019749;28;21020;-76
2022/07/01 02:43:44;;;;;;;5.17;4.67;;;15.30;99.90;;;;;;5021493;28;20507;-76
2022/07/01 02:46:10;;;;;;;4.93;4.50;;;15.30;99.90;;;;;;5022566;28;20477;-76
2022/07/01 02:48:38;;;;;;;4.30;4.00;;;15.30;99.90;;;;;;5022466;28;20911;-76
2022/07/01 02:51:05;;;;;;;4.13;3.83;;;15.40;99.90;;;;;;5019737;28;20449;-76
2022/07/01 02:53:32;;;;;;;4.33;4.00;;;15.40;99.90;;;;;;5022885;28;20450;-76
2022/07/01 02:55:59;;;;;;;5.10;3.83;;;15.40;99.90;;;;;;5022550;28;20528;-76
2022/07/01 02:58:26;;;;;;;3.87;3.53;;;15.40;99.90;;;;;;5015522;28;20524;-76
2022/07/01 03:00:53;;;;;;;4.60;4.20;;;15.40;99.90;;;;;;5018723;28;20463;-76
2022/07/01 03:03:20;;;;;;;3.87;3.57;;;15.40;99.90;;;;;;5020881;28;20505;-76
2022/07/01 03:05:49;;;;;;;4.17;3.77;;;15.40;99.90;;;;;;5014797;28;20437;-75
2022/07/01 03:08:15;;;;;;;3.43;3.20;;;15.50;99.90;;;;;;5025293;28;20477;-76
2022/07/01 03:10:42;;;;;;;3.90;3.60;;;15.40;99.90;;;;;;5023703;28;20491;-76
2022/07/01 03:13:08;;;;;;;3.50;3.10;;;15.40;99.90;;;;;;5013826;28;20523;-76
2022/07/01 03:15:35;;;;;;;4.20;3.80;;;15.40;99.90;;;;;;5017458;28;20633;-76
2022/07/01 03:18:02;;;;;;;3.30;3.10;;;15.30;99.90;;;;;;5022854;28;20449;-75
2022/07/01 03:20:28;;;;;;;3.33;3.03;;;15.20;99.90;;;;;;5015718;28;20458;-76
2022/07/01 03:22:56;;;;;;;3.70;3.40;;;15.20;99.90;;;;;;5017007;28;20454;-76
2022/07/01 03:25:23;;;;;;;3.50;3.20;;;15.10;99.90;;;;;;5016525;28;20509;-76
2022/07/01 03:27:50;;;;;;;6.83;3.67;;;15.10;99.90;;;;;;5022972;28;20486;-76
2022/07/01 03:30:17;;;;;;;3.70;3.40;;;15.10;99.90;;;;;;5025562;28;20557;-76
2022/07/01 03:32:44;;;;;;;4.23;3.33;;;15.20;99.90;;;;;;5014189;28;20826;-76
2022/07/01 03:37:57;;;;;;;4.73;3.10;;;15.10;99.90;;;;;;5013909;28;20477;-76
2022/07/01 03:40:24;;;;;;;3.23;2.97;;;15.10;99.90;;;;;;5022164;28;20454;-76
2022/07/01 03:42:51;;;;;;;4.13;2.90;;;15.10;99.90;;;;;;5018153;28;20485;-76
2022/07/01 03:45:18;;;;;;;5.90;3.13;;;15.10;99.90;;;;;;5016303;28;20500;-76
2022/07/01 03:47:48;;;;;;;3.80;3.40;;;15.10;99.90;;;;;;5019745;28;20531;-76
2022/07/01 03:50:15;;;;;;;3.73;3.43;;;15.00;99.90;;;;;;5024170;28;20453;-76
2022/07/01 03:52:42;;;;;;;3.87;3.57;;;15.00;99.90;;;;;;5015979;28;20508;-76
2022/07/01 03:55:10;;;;;;;3.83;3.40;;;15.00;99.90;;;;;;5013692;28;20474;-76
2022/07/01 03:57:37;;;;;;;3.80;3.43;;;14.90;99.90;;;;;;5022050;28;20483;-76
2022/07/01 04:00:05;;;;;;;3.70;3.40;;;14.90;99.90;;;;;;5023434;28;20453;-76
2022/07/01 04:02:31;;;;;;;3.60;3.30;;;14.90;99.90;;;;;;5016115;28;20457;-76
2022/07/01 04:04:58;;;;;;;4.40;3.37;;;14.90;99.90;;;;;;5022840;28;20478;-76
2022/07/01 04:07:25;;;;;;;3.60;3.30;;;14.90;99.90;;;;;;5024396;28;20454;-76
2022/07/01 04:09:52;;;;;;;4.90;3.20;;;14.90;99.90;;;;;;5016916;28;20908;-76
2022/07/01 04:12:21;;;;;;;3.20;2.90;;;14.90;99.90;;;;;;5022508;28;21625;-76
2022/07/01 04:14:47;;;;;;;6.10;3.40;;;14.90;99.90;;;;;;5016615;28;20473;-76
2022/07/01 04:17:14;;;;;;;4.00;3.70;;;14.90;99.90;;;;;;5025827;28;21019;-76
2022/07/01 04:19:41;;;;;;;4.70;3.23;;;14.90;99.90;;;;;;5022914;28;20453;-76
2022/07/01 04:24:51;;;;;;;4.30;3.57;;;14.90;99.90;;;;;;5020955;28;21100;-76
2022/07/01 04:27:19;;;;;;;4.10;3.70;;;14.90;99.90;;;;;;5017811;28;20509;-76
2022/07/01 04:29:46;;;;;;;3.33;3.13;;;14.90;99.90;;;;;;5017883;28;20429;-76
2022/07/01 04:32:13;;;;;;;4.50;3.70;;;14.90;99.90;;;;;;5014059;28;20861;-76
2022/07/01 04:34:39;;;;;;;5.03;3.40;;;14.90;99.90;;;;;;5023589;28;20465;-76
2022/07/01 04:37:06;;;;;;;5.10;3.17;;;15.00;99.90;;;;;;5023474;28;20508;-76
2022/07/01 04:39:32;;;;;;;5.13;3.57;;;15.00;99.90;;;;;;5017859;28;20454;-76
2022/07/01 04:42:02;;;;;;;3.20;3.00;;;15.00;99.90;;;;;;5012496;28;20519;-76
2022/07/01 04:44:32;;;;;;;3.97;3.10;;;15.00;99.90;;;;;;5020634;28;20480;-76
2022/07/01 04:46:58;;;;;;;6.70;3.27;;;15.00;99.90;;;;;;5017734;28;20469;-76
2022/07/01 04:49:25;;;;;;;3.47;3.23;;;15.10;99.90;;;;;;5024185;28;20511;-76
2022/07/01 04:51:52;;;;;;;3.40;3.20;;;15.00;99.90;;;;;;5023096;28;20458;-76
2022/07/01 04:54:19;;;;;;;3.30;3.10;;;15.10;99.90;;;;;;5020327;28;20470;-76
2022/07/01 04:56:46;;;;;;;3.93;2.60;;;15.10;99.90;;;;;;5017916;28;21020;-72
2022/07/01 04:59:13;;;;;;;2.67;2.47;;;15.20;99.90;;;;;;5020446;28;20447;-72
2022/07/01 05:01:41;;;;;;;3.57;3.27;;;15.30;99.90;;;;;;5024807;28;20453;-72
2022/07/01 05:04:08;;;;;;;5.93;3.07;;;15.30;99.90;;;;;;5019909;28;20454;-72
2022/07/01 05:06:35;;;;;;;4.50;2.80;;;15.40;99.90;;;;;;5018351;28;20458;-73
2022/07/01 05:09:02;;;;;;;2.90;2.60;;;15.40;99.90;;;;;;5017017;28;20481;-73
2022/07/01 05:11:29;;;;;;;4.80;3.20;;;15.40;99.90;;;;;;5019452;28;20829;-72
2022/07/01 05:13:55;;;;;;;3.00;2.57;;;15.30;99.90;;;;;;5020704;28;20462;-72
2022/07/01 05:16:22;;;;;;;3.63;2.57;;;15.40;99.90;;;;;;5021194;28;20454;-72
2022/07/01 05:24:18;;;;;;;2.10;1.90;;;15.60;99.90;;;;;;5018777;28;20537;-73
2022/07/01 05:26:45;;;;;;;2.30;2.10;;;15.70;99.90;;;;;;5018215;28;20489;-73
2022/07/01 05:29:12;;;;;;;3.63;2.07;;;15.80;99.90;;;;;;5018002;28;20544;-73
2022/07/01 05:31:39;;;;;;;2.73;2.17;;;15.80;99.90;;;;;;5021119;28;20472;-72
2022/07/01 05:34:07;;;;;;;2.73;2.30;;;15.70;99.90;;;;;;5022807;28;20823;-72
2022/07/01 05:36:34;;;;;;;2.17;1.97;;;15.80;99.90;;;;;;5026108;28;20454;-73
2022/07/01 05:39:01;;;;;;;3.90;1.77;;;15.80;99.90;;;;;;5019585;28;20425;-73
2022/07/01 05:41:27;;;;;;;2.00;1.90;;;15.80;99.90;;;;;;5021304;28;20881;-73
2022/07/01 05:43:54;;;;;;;2.03;1.93;;;15.90;99.90;;;;;;5015477;28;20454;-73
2022/07/01 05:46:20;;;;;;;2.17;2.07;;;15.80;99.90;;;;;;5014322;28;20956;-72
2022/07/01 05:48:47;;;;;;;2.00;1.90;;;15.80;99.90;;;;;;5021723;28;20563;-72
2022/07/01 05:51:15;;;;;;;2.17;2.03;;;15.80;99.90;;;;;;5021967;28;20454;-73
2022/07/01 05:53:43;;;;;;;2.30;2.10;;;15.90;99.90;;;;;;5020685;28;20424;-73
2022/07/01 05:56:09;;;;;;;5.00;2.20;;;15.90;99.90;;;;;;5021998;28;20449;-73
2022/07/01 05:58:36;;;;;;;2.17;2.00;;;15.90;99.90;;;;;;5021490;28;20446;-73
2022/07/01 06:01:03;;;;;;;2.37;2.03;;;15.90;99.90;;;;;;5013107;28;20462;-74
2022/07/01 06:03:30;;;;;;;5.90;2.27;;;16.10;99.90;;;;;;5007585;28;20459;-74
2022/07/01 06:05:56;;;;;;;1.93;1.80;;;16.10;99.90;;;;;;5019145;28;20530;-74
2022/07/01 06:08:24;;;;;;;2.20;2.10;;;16.20;99.90;;;;;;5022280;28;20492;-74
2022/07/01 06:10:51;;;;;;;4.40;2.20;;;16.20;99.90;;;;;;5019598;28;20867;-75
2022/07/01 06:13:18;;;;;;;2.47;2.27;;;16.20;99.90;;;;;;5018726;28;20446;-75
2022/07/01 06:15:44;;;;;;;3.60;2.50;;;16.20;99.90;;;;;;5021131;28;20498;-74
2022/07/01 06:18:11;;;;;;;2.20;2.00;;;16.30;99.90;;;;;;5019913;28;20475;-74
2022/07/01 06:20:38;;;;;;;2.43;2.33;;;16.20;99.90;;;;;;5017240;28;20451;-74
2022/07/01 06:23:04;;;;;;;2.53;2.33;;;16.30;99.90;;;;;;5018657;28;20783;-74
2022/07/01 06:25:32;;;;;;;2.93;2.07;;;16.30;99.90;;;;;;5023213;28;20994;-74
2022/07/01 06:27:59;;;;;;;3.10;2.30;;;16.30;99.90;;;;;;5023397;28;20482;-74
2022/07/01 06:30:26;;;;;;;3.50;2.40;;;16.50;99.90;;;;;;5019742;28;20421;-74
2022/07/01 06:32:52;;;;;;;2.30;2.20;;;16.80;99.90;;;;;;5016703;28;20453;-74
2022/07/01 06:35:19;;;;;;;2.40;2.30;;;17.00;99.90;;;;;;5020979;28;21005;-74
2022/07/01 06:37:46;;;;;;;3.50;2.30;;;17.00;99.90;;;;;;5029208;28;20431;-74
2022/07/01 06:40:13;;;;;;;2.97;2.43;;;16.90;99.90;;;;;;5016773;28;20448;-74
2022/07/01 06:42:41;;;;;;;2.50;2.30;;;16.90;99.90;;;;;;5029740;28;20450;-74
2022/07/01 06:45:08;;;;;;;1.97;1.87;;;16.60;99.90;;;;;;5012893;28;20440;-74
2022/07/01 06:47:36;;;;;;;3.27;2.40;;;16.60;99.90;;;;;;5023861;28;20470;-74
2022/07/01 06:50:03;;;;;;;2.63;2.20;;;16.60;99.90;;;;;;5022613;28;20464;-75
2022/07/01 06:52:29;;;;;;;2.57;1.90;;;16.80;99.90;;;;;;5018806;28;20431;-75
2022/07/01 06:54:56;;;;;;;2.17;2.03;;;16.80;99.90;;;;;;5015655;28;20916;-75
2022/07/01 06:57:22;;;;;;;2.77;2.20;;;17.00;99.90;;;;;;5018704;28;20425;-75
2022/07/01 06:59:50;;;;;;;2.50;2.23;;;17.10;99.90;;;;;;5022464;28;20936;-75
2022/07/01 07:02:18;;;;;;;7.20;2.30;;;17.30;99.90;;;;;;5026579;28;20981;-75
2022/07/01 07:04:44;;;;;;;2.03;1.93;;;17.50;99.90;;;;;;5021941;28;20936;-75
2022/07/01 07:07:11;;;;;;;3.63;2.20;;;17.70;99.90;;;;;;5011003;28;20499;-75
2022/07/01 07:09:38;;;;;;;2.10;1.80;;;17.80;99.90;;;;;;5020508;28;20544;-75
2022/07/01 07:12:05;;;;;;;2.40;2.20;;;18.00;99.90;;;;;;5018671;28;20453;-77
2022/07/01 07:14:32;;;;;;;4.87;1.83;;;18.10;99.90;;;;;;5019134;28;20886;-76
2022/07/01 07:17:00;;;;;;;2.15;1.40;;;18.20;99.90;;;;;;5013929;28;20962;-75
2022/07/01 07:19:27;;;;;;;2.80;2.17;;;18.20;99.90;;;;;;5013345;28;20287;-75
2022/07/01 07:21:56;;;;;;;2.23;1.90;;;18.10;99.90;;;;;;5023197;28;20830;-75
2022/07/01 07:24:23;;;;;;;2.07;1.87;;;18.00;99.90;;;;;;5011783;28;20485;-75
2022/07/01 07:26:49;;;;;;;1.83;1.73;;;17.90;99.90;;;;;;5023719;28;20466;-77
2022/07/01 07:29:16;;;;;;;2.50;1.70;;;17.80;99.90;;;;;;5022335;28;20502;-75
2022/07/01 07:31:43;;;;;;;2.03;1.60;;;17.60;99.90;;;;;;5020949;28;20446;-75
2022/07/01 07:34:11;;;;;;;1.97;1.77;;;17.50;99.90;;;;;;5014515;28;20452;-76
2022/07/01 07:36:38;;;;;;;3.10;2.03;;;17.40;99.90;;;;;;5020205;28;20981;-76
2022/07/01 07:39:05;;;;;;;5.10;2.10;;;17.30;99.90;;;;;;5019257;28;20504;-76
2022/07/01 07:41:31;;;;;;;3.40;1.80;;;17.30;99.90;;;;;;5019698;28;20960;-75
2022/07/01 07:43:58;;;;;;;2.00;1.80;;;17.10;99.90;;;;;;5016216;28;21011;-76
2022/07/01 07:46:25;;;;;;;3.17;1.90;;;16.80;99.90;;;;;;5016299;28;20461;-76
2022/07/01 07:48:52;;;;;;;1.70;1.60;;;16.70;99.90;;;;;;5017495;28;20468;-76
2022/07/01 07:51:22;;;;;;;2.10;1.80;;;16.70;99.90;;;;;;5010923;28;20457;-76
2022/07/01 07:53:49;;;;;;;1.87;1.77;;;16.60;99.90;;;;;;5014183;28;20466;-76
2022/07/01 07:56:16;;;;;;;6.50;2.50;;;16.60;99.90;;;;;;5012236;28;20450;-76
2022/07/01 07:58:43;;;;;;;2.17;2.07;;;16.60;99.90;;;;;;5010213;28;20475;-76
2022/07/01 08:01:11;;;;;;;2.80;1.80;;;16.60;99.90;;;;;;5009299;28;20449;-76
2022/07/01 08:03:38;;;;;;;3.10;1.90;;;16.70;99.90;;;;;;5013185;28;20477;-76
2022/07/01 08:06:05;;;;;;;2.20;2.00;;;16.70;99.90;;;;;;5021348;28;20448;-77
2022/07/01 08:08:33;;;;;;;1.87;1.73;;;16.50;99.90;;;;;;5020252;28;20647;-74
2022/07/01 08:11:00;;;;;;;2.07;1.90;;;16.40;99.90;;;;;;5026328;28;20479;-78
2022/07/01 08:13:27;;;;;;;3.53;2.13;;;16.30;99.90;;;;;;5014234;28;20464;-75
2022/07/01 08:15:54;;;;;;;3.20;2.13;;;16.30;99.90;;;;;;5015961;28;20509;-78
2022/07/01 08:18:21;;;;;;;3.73;1.93;;;16.30;99.90;;;;;;5021164;28;21310;-77
2022/07/01 08:20:50;;;;;;;2.27;2.00;;;16.20;99.90;;;;;;5020396;28;20458;-77
2022/07/01 08:23:17;;;;;;;2.50;2.17;;;16.30;99.90;;;;;;5009145;28;20432;-75
2022/07/01 08:25:45;;;;;;;3.20;2.00;;;16.20;99.90;;;;;;5016639;28;20849;-75
2022/07/01 08:28:12;;;;;;;2.33;2.10;;;16.40;99.90;;;;;;5018424;28;20428;-75
2022/07/01 08:30:39;;;;;;;3.83;2.00;;;16.50;99.90;;;;;;5023677;28;20485;-75
2022/07/01 08:33:06;;;;;;;2.43;2.23;;;16.40;99.90;;;;;;5017095;28;20523;-75
2022/07/01 08:35:33;;;;;;;3.70;2.07;;;16.30;99.90;;;;;;5020245;28;20552;-75
2022/07/01 08:38:00;;;;;;;3.40;2.00;;;16.30;99.90;;;;;;5018863;28;20455;-75
2022/07/01 08:40:28;;;;;;;7.57;2.13;;;16.30;99.90;;;;;;5014370;28;20429;-75
2022/07/01 08:43:01;;;;;;;4.03;1.90;;;16.30;99.90;;;;;;5021357;28;20432;-75
2022/07/01 08:45:29;;;;;;;5.53;2.03;;;16.30;99.90;;;;;;5008656;28;20827;-75
2022/07/01 08:48:00;;;;;;;4.43;2.10;;;16.30;99.90;;;;;;5012993;28;20557;-74
2022/07/01 08:50:28;;;;;;;6.40;2.20;;;16.40;99.90;;;;;;5017978;28;20485;-74
2022/07/01 08:52:55;;;;;;;3.43;2.13;;;16.50;99.90;;;;;;5024774;28;20433;-74
2022/07/01 08:55:23;;;;;;;3.20;2.37;;;16.50;99.90;;;;;;5015581;28;20994;-74
2022/07/01 08:57:50;;;;;;;5.57;2.60;;;16.50;99.90;;;;;;5014302;28;20494;-75
2022/07/01 09:00:18;;;;;;;4.23;2.27;;;16.50;99.90;;;;;;5019731;28;20427;-74
2022/07/01 09:02:54;;;;;;;4.23;2.67;;;16.50;99.90;;;;;;5016699;28;20528;-74
2022/07/01 09:05:21;;;;;;;3.30;1.80;;;16.50;99.90;;;;;;5023861;28;20451;-74
2022/07/01 09:07:49;;;;;;;6.17;2.20;;;16.40;99.90;;;;;;5017680;28;20466;-74
2022/07/01 09:10:18;;;;;;;2.20;2.00;;;16.30;99.90;;;;;;5016859;28;20456;-75
2022/07/01 09:12:46;;;;;;;2.20;2.00;;;16.30;99.90;;;;;;5019426;28;20820;-75
2022/07/01 09:15:26;;;;;;;2.37;2.17;;;16.40;99.90;;;;;;5019690;28;20481;-74
2022/07/01 09:17:54;;;;;;;6.20;2.13;;;16.50;99.90;;;;;;5015761;28;20462;-75
2022/07/01 09:20:26;;;;;;;6.43;2.17;;;16.60;99.90;;;;;;5021791;28;20504;-74
2022/07/01 09:23:04;;;;;;;9.87;2.23;;;16.70;99.90;;;;;;5015083;28;20478;-74
2022/07/01 09:25:33;;;;;;;2.30;2.03;;;16.80;99.90;;;;;;5009740;28;20539;-74
2022/07/01 09:28:04;;;;;;;3.87;2.30;;;16.80;99.90;;;;;;5020720;28;20466;-74
2022/07/01 09:30:33;;;;;;;10.33;3.33;;;16.80;99.90;;;;;;5018411;28;20461;-74
2022/07/01 09:33:12;;;;;;;2.40;2.20;;;16.80;99.90;;;;;;5020135;28;20469;-75
2022/07/01 09:35:40;;;;;;;5.20;2.17;;;16.80;99.90;;;;;;5022295;28;20489;-75
2022/07/01 09:38:08;;;;;;;2.40;2.20;;;16.80;99.90;;;;;;5016838;28;20489;-75
2022/07/01 09:40:48;;;;;;;5.30;2.20;;;16.80;99.90;;;;;;5010377;28;20455;-75
2022/07/01 09:43:17;;;;;;;5.40;2.47;;;16.80;99.90;;;;;;5013217;28;20473;-75
2022/07/01 09:45:57;;;;;;;3.53;2.10;;;16.70;99.90;;;;;;5015920;28;20503;-75
2022/07/01 09:48:25;;;;;;;4.30;3.30;;;16.60;99.90;;;;;;5019470;28;20416;-75
2022/07/01 09:50:52;;;;;;;3.80;2.30;;;16.60;99.90;;;;;;5017720;28;20451;-75
2022/07/01 09:53:19;;;;;;;4.67;2.80;;;16.60;99.90;;;;;;5021252;28;20465;-75
2022/07/01 09:55:46;;;;;;;4.47;2.47;;;16.50;99.90;;;;;;5013469;28;20470;-75
2022/07/01 09:58:13;;;;;;;5.03;2.67;;;16.70;99.90;;;;;;5013429;28;20519;-75
2022/07/01 10:00:41;;;;;;;6.40;2.20;;;16.70;99.90;;;;;;5013299;28;20429;-74
2022/07/01 10:03:09;;;;;;;8.13;2.57;;;16.70;99.90;;;;;;5017902;28;20520;-75
2022/07/01 10:05:43;;;;;;;2.53;2.30;;;16.80;99.90;;;;;;5016061;28;20469;-75
2022/07/01 10:08:33;;;;;;;3.20;2.90;;;16.80;99.90;;;;;;5017813;28;20436;-76
2022/07/01 10:11:15;;;;;;;4.90;2.07;;;16.90;99.90;;;;;;5016098;28;20474;-76
2022/07/01 10:13:43;;;;;;;8.13;2.50;;;16.80;99.90;;;;;;5020320;28;20434;-75
2022/07/01 10:16:11;;;;;;;5.30;2.60;;;16.80;99.90;;;;;;5014575;28;20458;-75
2022/07/01 10:18:40;;;;;;;4.50;2.10;;;16.70;99.90;;;;;;5016077;28;20446;-75
2022/07/01 10:21:07;;;;;;;2.33;2.10;;;16.70;99.90;;;;;;5013846;28;21033;-75
2022/07/01 10:23:40;;;;;;;3.90;2.20;;;16.70;99.90;;;;;;5015725;28;20912;-75
2022/07/01 10:26:10;;;;;;;5.00;2.20;;;16.80;99.90;;;;;;5015711;28;21080;-74
2022/07/01 10:28:45;;;;;;;3.70;2.00;;;16.90;99.90;;;;;;5015057;28;20454;-75
2022/07/01 10:31:15;;;;;;;4.30;2.07;;;17.10;99.90;;;;;;5011837;28;20539;-75
2022/07/01 10:33:46;;;;;;;2.33;1.97;;;17.10;99.90;;;;;;5017883;28;20481;-75
2022/07/01 10:36:20;;;;;;;3.67;2.20;;;17.30;99.90;;;;;;5019420;28;20476;-75
2022/07/01 10:39:13;;;;;;;3.20;2.23;;;17.60;99.90;;;;;;5019719;28;20445;-75
2022/07/01 10:41:41;;;;;;;2.90;2.03;;;17.90;99.90;;;;;;5027767;28;20440;-75
2022/07/01 10:44:10;;;;;;;6.57;2.00;;;18.20;99.90;;;;;;5028399;28;20470;-76
2022/07/01 10:46:43;;;;;;;3.30;2.10;;;18.40;99.90;;;;;;5016046;28;20436;-75
2022/07/01 10:49:13;;;;;;;3.60;2.23;;;18.40;99.90;;;;;;5016068;28;20488;-75
2022/07/01 10:51:46;;;;;;;3.47;2.00;;;18.70;99.90;;;;;;5019899;28;20904;-75
2022/07/01 10:54:13;;;;;;;4.77;1.90;;;19.00;99.90;;;;;;5019457;28;20552;-75
2022/07/01 10:56:40;;;;;;;2.80;2.10;;;19.20;99.90;;;;;;5026417;28;20428;-75
2022/07/01 10:59:07;;;;;;;5.57;1.97;;;19.30;99.90;;;;;;5023171;28;20437;-75
2022/07/01 11:01:34;;;;;;;5.00;2.03;;;19.40;99.90;;;;;;5017798;28;20439;-76
2022/07/01 11:04:02;;;;;;;4.57;1.77;;;19.40;99.90;;;;;;5019123;28;20435;-75
2022/07/01 11:06:36;;;;;;;4.43;1.90;;;19.10;99.90;;;;;;5014697;28;20800;-76
2022/07/01 11:09:02;;;;;;;3.40;2.10;;;19.10;99.90;;;;;;5013920;28;20437;-75
2022/07/01 11:11:30;;;;;;;3.67;2.13;;;19.10;99.90;;;;;;5015601;28;20483;-75
2022/07/01 11:13:58;;;;;;;3.10;1.97;;;19.10;99.90;;;;;;5015245;28;20442;-76
2022/07/01 11:16:24;;;;;;;4.50;1.80;;;19.10;99.90;;;;;;5010449;28;20429;-75
2022/07/01 11:18:51;;;;;;;4.03;2.40;;;19.20;99.90;;;;;;5022245;28;20433;-76
2022/07/01 11:21:18;;;;;;;2.53;2.20;;;19.30;99.90;;;;;;5018781;28;20449;-75
2022/07/01 11:23:55;;;;;;;4.30;2.27;;;19.30;99.90;;;;;;5013965;28;20483;-76
2022/07/01 11:26:23;;;;;;;2.13;1.80;;;19.10;99.90;;;;;;5019928;28;20442;-75
2022/07/01 11:28:50;;;;;;;3.93;2.20;;;19.20;99.90;;;;;;5016559;28;20446;-76
2022/07/01 11:31:28;;;;;;;9.67;2.10;;;19.50;99.90;;;;;;5019903;28;20569;-76
2022/07/01 11:33:55;;;;;;;2.10;1.90;;;19.90;99.90;;;;;;5016861;28;20515;-75
2022/07/01 11:39:23;;;;;;;5.47;2.10;;;19.90;99.90;;;;;;5018009;28;20407;-76
2022/07/01 11:41:54;;;;;;;3.83;2.10;;;20.30;99.90;;;;;;5012733;28;20455;-76
2022/07/01 11:44:29;;;;;;;2.23;1.90;;;20.20;99.90;;;;;;5013580;28;20474;-76
2022/07/01 11:46:56;;;;;;;4.43;1.80;;;20.20;99.90;;;;;;5016907;28;20551;-76
2022/07/01 11:49:23;;;;;;;2.40;1.83;;;20.40;99.90;;;;;;5017268;28;20450;-76
2022/07/01 11:51:55;;;;;;;9.23;2.50;;;20.40;99.90;;;;;;5015908;28;20485;-76
2022/07/01 11:54:23;;;;;;;3.80;2.03;;;20.30;99.90;;;;;;5014006;28;20556;-76
2022/07/01 11:56:51;;;;;;;8.10;2.30;;;20.10;99.90;;;;;;5012696;28;20435;-76
2022/07/01 11:59:17;;;;;;;1.77;1.40;;;19.90;99.90;;;;;;5020538;28;20454;-76
2022/07/01 12:01:52;;;;;;;3.10;1.60;;;19.90;99.90;;;;;;5015388;28;20425;-76
2022/07/01 12:04:19;;;;;;;2.30;1.83;;;19.90;99.90;;;;;;5021015;28;20451;-76
2022/07/01 12:06:47;;;;;;;4.93;1.87;;;20.10;99.90;;;;;;5013192;28;20451;-77
2022/07/01 12:09:15;;;;;;;3.47;1.87;;;20.20;99.90;;;;;;5018035;28;20441;-77
2022/07/01 12:11:45;;;;;;;3.07;1.80;;;20.80;99.90;;;;;;5013355;28;20936;-76
2022/07/01 12:14:12;;;;;;;6.73;3.40;;;21.20;99.90;;;;;;5010449;28;20557;-77
2022/07/01 12:16:40;;;;;;;2.33;1.53;;;21.70;99.90;;;;;;5018081;28;20457;-76
2022/07/01 12:19:08;;;;;;;3.80;1.80;;;21.50;99.90;;;;;;5016356;28;20462;-78
2022/07/01 12:21:49;;;;;;;1.73;1.57;;;21.50;99.90;;;;;;5008690;28;20454;-76
2022/07/01 12:24:18;;;;;;;1.87;1.70;;;21.40;99.90;;;;;;5005682;28;20477;-77
2022/07/01 12:26:54;;;;;;;2.80;2.00;;;21.30;99.90;;;;;;5011857;28;20454;-77
2022/07/01 12:29:22;;;;;;;2.33;1.57;;;21.10;99.90;;;;;;5012362;28;20880;-78
2022/07/01 12:32:01;;;;;;;1.93;1.53;;;21.00;99.90;;;;;;5014220;28;20482;-78
2022/07/01 12:34:39;;;;;;;3.60;2.00;;;20.60;99.90;;;;;;5010965;28;20520;-76
2022/07/01 12:37:10;;;;;;;3.63;1.80;;;20.50;99.90;;;;;;5010295;28;20461;-81
2022/07/01 12:39:43;;;;;;;2.33;1.60;;;20.50;99.90;;;;;;5023030;28;20461;-78
2022/07/01 12:42:24;;;;;;;4.17;1.80;;;20.60;99.90;;;;;;5009463;28;20533;-76
2022/07/01 12:44:52;;;;;;;4.77;1.70;;;20.80;99.90;;;;;;5018198;28;21035;-78
2022/07/01 12:47:20;;;;;;;3.10;2.10;;;21.30;99.90;;;;;;5012276;28;20489;-77
2022/07/01 12:49:47;;;;;;;4.03;1.67;;;21.90;99.90;;;;;;5012702;28;20462;-78
2022/07/01 12:52:27;;;;;;;2.27;1.67;;;22.50;99.90;;;;;;5020357;28;20481;-77
2022/07/01 12:54:57;;;;;;;2.43;1.50;;;22.90;99.90;;;;;;5010303;28;20566;-76
2022/07/01 12:57:32;;;;;;;2.33;1.57;;;22.60;99.90;;;;;;5021104;28;20999;-76
2022/07/01 12:59:59;;;;;;;5.20;1.80;;;21.90;99.90;;;;;;5011665;28;20532;-76
2022/07/01 13:02:26;;;;;;;3.67;1.67;;;21.40;99.90;;;;;;5014865;28;20462;-76
2022/07/01 13:04:53;;;;;;;3.47;1.77;;;21.10;99.90;;;;;;5013140;28;20474;-77